createdAt,value
2018-10-02T00:00:03.466Z,7.32
2018-10-02T00:00:38.996Z,7.35
2018-10-02T00:01:14.616Z,7.40
2018-10-02T00:01:50.023Z,7.37
2018-10-02T00:02:25.381Z,7.34
2018-10-02T00:03:01.096Z,7.37
2018-10-02T00:03:36.348Z,7.29
2018-10-02T00:04:11.720Z,7.41
2018-10-02T00:04:47.228Z,7.45
2018-10-02T00:05:22.894Z,7.41
2018-10-02T00:05:58.075Z,7.35
2018-10-02T00:06:33.504Z,7.37
2018-10-02T00:07:10.363Z,7.26
2018-10-02T00:07:45.934Z,7.29
2018-10-02T00:08:21.035Z,7.29
2018-10-02T00:08:56.268Z,7.22
2018-10-02T00:09:31.671Z,7.34
2018-10-02T00:10:06.896Z,7.29
2018-10-02T00:10:41.981Z,7.38
2018-10-02T00:11:17.511Z,7.26
2018-10-02T00:11:52.630Z,7.37
2018-10-02T00:12:28.287Z,7.35
2018-10-02T00:13:03.867Z,7.37
2018-10-02T00:13:39.144Z,7.45
2018-10-02T00:14:14.548Z,7.42
2018-10-02T00:14:49.772Z,7.15
2018-10-02T00:15:24.898Z,7.02
2018-10-02T00:16:00.194Z,6.90
2018-10-02T00:16:35.787Z,7.02
2018-10-02T00:17:11.321Z,7.01
2018-10-02T00:17:47.844Z,7.07
2018-10-02T00:18:23.592Z,6.89
2018-10-02T00:18:59.222Z,6.97
2018-10-02T00:19:34.929Z,6.99
2018-10-02T00:20:10.414Z,7.01
2018-10-02T00:20:46.196Z,6.94
2018-10-02T00:21:21.287Z,6.94
2018-10-02T00:21:56.821Z,6.83
2018-10-02T00:22:32.319Z,6.90
2018-10-02T00:23:07.562Z,6.91
2018-10-02T00:23:42.669Z,6.73
2018-10-02T00:24:17.984Z,6.83
2018-10-02T00:24:53.402Z,6.86
2018-10-02T00:25:28.698Z,6.86
2018-10-02T00:26:03.928Z,6.89
2018-10-02T00:26:39.326Z,6.87
2018-10-02T00:27:14.855Z,6.89
2018-10-02T00:27:50.456Z,6.86
2018-10-02T00:28:25.992Z,6.80
2018-10-02T00:29:01.734Z,6.72
2018-10-02T00:29:37.048Z,6.76
2018-10-02T00:30:12.463Z,6.86
2018-10-02T00:30:47.780Z,6.79
2018-10-02T00:31:23.055Z,6.89
2018-10-02T00:31:58.393Z,6.83
2018-10-02T00:32:33.945Z,6.86
2018-10-02T00:33:09.242Z,6.84
2018-10-02T00:33:44.491Z,6.81
2018-10-02T00:34:19.828Z,6.86
2018-10-02T00:34:55.263Z,6.83
2018-10-02T00:35:30.568Z,6.84
2018-10-02T00:36:05.889Z,6.86
2018-10-02T00:36:41.278Z,6.87
2018-10-02T00:37:16.531Z,6.76
2018-10-02T00:37:51.794Z,6.87
2018-10-02T00:38:27.280Z,6.89
2018-10-02T00:39:02.641Z,6.76
2018-10-02T00:39:38.143Z,6.86
2018-10-02T00:40:13.639Z,6.83
2018-10-02T00:40:48.941Z,6.87
2018-10-02T00:41:24.265Z,6.94
2018-10-02T00:41:59.602Z,6.95
2018-10-02T00:42:35.299Z,6.79
2018-10-02T00:43:13.998Z,6.90
2018-10-02T00:43:49.507Z,6.84
2018-10-02T00:44:25.055Z,6.87
2018-10-02T00:45:00.528Z,6.89
2018-10-02T00:45:35.843Z,6.84
2018-10-02T00:46:10.928Z,6.86
2018-10-02T00:46:46.758Z,6.81
2018-10-02T00:47:22.300Z,6.77
2018-10-02T00:47:57.678Z,6.90
2018-10-02T00:48:33.554Z,6.84
2018-10-02T00:49:09.173Z,6.73
2018-10-02T00:49:44.479Z,6.89
2018-10-02T00:50:19.897Z,6.87
2018-10-02T00:50:55.203Z,6.86
2018-10-02T00:51:30.752Z,6.84
2018-10-02T00:52:06.380Z,6.87
2018-10-02T00:52:41.649Z,6.77
2018-10-02T00:53:16.637Z,6.89
2018-10-02T00:53:52.072Z,6.87
2018-10-02T00:54:27.274Z,6.81
2018-10-02T00:55:02.609Z,6.87
2018-10-02T00:55:37.668Z,6.81
2018-10-02T00:56:13.175Z,6.86
2018-10-02T00:56:48.551Z,6.89
2018-10-02T00:57:23.897Z,6.80
2018-10-02T00:57:59.058Z,6.84
2018-10-02T00:58:34.526Z,6.81
2018-10-02T00:59:09.788Z,6.81
2018-10-02T00:59:45.124Z,6.84
2018-10-02T01:00:20.685Z,6.94
2018-10-02T01:00:56.108Z,7.01
2018-10-02T01:01:31.514Z,6.99
2018-10-02T01:02:06.905Z,6.95
2018-10-02T01:02:42.432Z,7.04
2018-10-02T01:03:18.147Z,6.91
2018-10-02T01:03:53.466Z,7.02
2018-10-02T01:04:28.906Z,7.01
2018-10-02T01:05:04.210Z,7.01
2018-10-02T01:05:39.741Z,7.01
2018-10-02T01:06:15.193Z,7.12
2018-10-02T01:06:50.553Z,7.04
2018-10-02T01:07:25.953Z,7.05
2018-10-02T01:08:01.709Z,7.09
2018-10-02T01:08:37.225Z,7.13
2018-10-02T01:09:12.689Z,7.15
2018-10-02T01:09:48.098Z,7.16
2018-10-02T01:10:23.433Z,7.19
2018-10-02T01:10:59.551Z,7.16
2018-10-02T01:11:34.957Z,7.17
2018-10-02T01:12:10.397Z,7.19
2018-10-02T01:12:45.917Z,7.22
2018-10-02T01:13:21.028Z,7.13
2018-10-02T01:13:56.586Z,7.13
2018-10-02T01:14:31.899Z,7.23
2018-10-02T01:15:07.172Z,7.32
2018-10-02T01:15:42.581Z,7.26
2018-10-02T01:16:17.802Z,7.34
2018-10-02T01:16:53.206Z,7.24
2018-10-02T01:17:28.642Z,7.23
2018-10-02T01:18:03.775Z,7.32
2018-10-02T01:18:39.189Z,7.27
2018-10-02T01:19:15.000Z,7.24
2018-10-02T01:19:50.352Z,7.22
2018-10-02T01:20:25.984Z,7.32
2018-10-02T01:21:01.442Z,7.34
2018-10-02T01:21:36.618Z,7.34
2018-10-02T01:22:12.373Z,7.27
2018-10-02T01:22:47.835Z,7.31
2018-10-02T01:23:23.720Z,7.27
2018-10-02T01:23:59.051Z,7.29
2018-10-02T01:24:34.740Z,7.26
2018-10-02T01:25:10.169Z,7.37
2018-10-02T01:25:45.869Z,7.34
2018-10-02T01:26:21.226Z,7.35
2018-10-02T01:26:56.381Z,7.40
2018-10-02T01:27:31.648Z,7.35
2018-10-02T01:28:07.170Z,7.35
2018-10-02T01:28:42.702Z,7.38
2018-10-02T01:29:18.130Z,7.31
2018-10-02T01:29:53.419Z,7.35
2018-10-02T01:30:28.753Z,7.41
2018-10-02T01:31:03.940Z,7.40
2018-10-02T01:31:38.963Z,7.37
2018-10-02T01:32:14.234Z,7.47
2018-10-02T01:32:49.808Z,7.41
2018-10-02T01:33:25.229Z,7.42
2018-10-02T01:34:00.737Z,7.38
2018-10-02T01:34:36.051Z,7.40
2018-10-02T01:35:11.760Z,7.45
2018-10-02T01:35:47.274Z,7.53
2018-10-02T01:36:22.477Z,7.50
2018-10-02T01:36:58.243Z,7.50
2018-10-02T01:37:33.550Z,7.50
2018-10-02T01:38:09.004Z,7.52
2018-10-02T01:38:44.308Z,7.50
2018-10-02T01:39:22.639Z,7.47
2018-10-02T01:39:58.182Z,7.42
2018-10-02T01:40:33.303Z,7.55
2018-10-02T01:41:08.528Z,7.49
2018-10-02T01:41:43.841Z,7.47
2018-10-02T01:42:19.277Z,7.53
2018-10-02T01:42:54.572Z,7.55
2018-10-02T01:43:30.218Z,7.45
2018-10-02T01:44:05.577Z,7.53
2018-10-02T01:44:41.076Z,7.49
2018-10-02T01:45:16.374Z,7.55
2018-10-02T01:45:51.497Z,7.52
2018-10-02T01:46:26.833Z,7.52
2018-10-02T01:47:02.176Z,7.45
2018-10-02T01:47:37.500Z,7.50
2018-10-02T01:48:13.002Z,7.60
2018-10-02T01:48:48.263Z,7.53
2018-10-02T01:49:23.682Z,7.56
2018-10-02T01:49:59.172Z,7.55
2018-10-02T01:50:34.831Z,7.60
2018-10-02T01:51:10.370Z,7.55
2018-10-02T01:51:45.687Z,7.59
2018-10-02T01:52:21.034Z,7.52
2018-10-02T01:52:56.256Z,7.55
2018-10-02T01:53:31.812Z,7.53
2018-10-02T01:54:07.156Z,7.59
2018-10-02T01:54:42.427Z,7.52
2018-10-02T01:55:17.627Z,7.56
2018-10-02T01:55:52.980Z,7.52
2018-10-02T01:56:28.488Z,7.52
2018-10-02T01:57:04.051Z,7.52
2018-10-02T01:57:39.683Z,7.49
2018-10-02T01:58:15.528Z,7.53
2018-10-02T01:58:51.066Z,7.47
2018-10-02T01:59:26.620Z,7.52
2018-10-02T02:00:01.971Z,7.62
2018-10-02T02:00:37.505Z,7.56
2018-10-02T02:01:12.933Z,7.50
2018-10-02T02:01:48.255Z,7.59
2018-10-02T02:02:23.571Z,7.60
2018-10-02T02:02:58.974Z,7.60
2018-10-02T02:03:34.110Z,7.60
2018-10-02T02:04:09.235Z,7.62
2018-10-02T02:04:44.575Z,7.66
2018-10-02T02:05:20.029Z,7.59
2018-10-02T02:05:58.624Z,7.67
2018-10-02T02:06:33.741Z,7.59
2018-10-02T02:07:09.148Z,7.55
2018-10-02T02:07:44.678Z,7.53
2018-10-02T02:08:20.105Z,7.60
2018-10-02T02:08:55.757Z,7.53
2018-10-02T02:09:31.122Z,7.66
2018-10-02T02:10:06.563Z,7.53
2018-10-02T02:10:42.324Z,7.56
2018-10-02T02:11:17.610Z,7.55
2018-10-02T02:11:52.867Z,7.53
2018-10-02T02:12:28.212Z,7.50
2018-10-02T02:13:03.765Z,7.60
2018-10-02T02:13:39.067Z,7.58
2018-10-02T02:14:14.681Z,7.58
2018-10-02T02:14:50.100Z,7.55
2018-10-02T02:15:25.430Z,7.53
2018-10-02T02:16:00.976Z,7.56
2018-10-02T02:16:36.496Z,7.58
2018-10-02T02:17:11.937Z,7.53
2018-10-02T02:17:47.137Z,7.56
2018-10-02T02:18:22.584Z,7.52
2018-10-02T02:18:57.691Z,7.52
2018-10-02T02:19:33.045Z,7.52
2018-10-02T02:20:08.489Z,7.50
2018-10-02T02:20:44.546Z,7.56
2018-10-02T02:21:19.704Z,7.53
2018-10-02T02:21:54.924Z,7.67
2018-10-02T02:22:30.055Z,7.56
2018-10-02T02:23:05.771Z,7.47
2018-10-02T02:23:41.574Z,7.59
2018-10-02T02:24:16.877Z,7.50
2018-10-02T02:24:52.296Z,7.55
2018-10-02T02:25:27.513Z,7.55
2018-10-02T02:26:03.336Z,7.58
2018-10-02T02:26:38.866Z,7.58
2018-10-02T02:27:13.985Z,7.62
2018-10-02T02:27:49.274Z,7.69
2018-10-02T02:28:24.798Z,7.67
2018-10-02T02:29:00.537Z,7.63
2018-10-02T02:29:35.969Z,7.69
2018-10-02T02:30:11.179Z,7.62
2018-10-02T02:30:46.423Z,7.59
2018-10-02T02:31:22.220Z,7.67
2018-10-02T02:31:57.620Z,7.56
2018-10-02T02:32:33.034Z,7.71
2018-10-02T02:33:08.426Z,7.71
2018-10-02T02:33:46.899Z,7.62
2018-10-02T02:34:22.481Z,7.71
2018-10-02T02:34:57.597Z,7.77
2018-10-02T02:35:33.041Z,7.71
2018-10-02T02:36:08.636Z,7.63
2018-10-02T02:36:43.898Z,7.71
2018-10-02T02:37:19.189Z,7.69
2018-10-02T02:37:54.708Z,7.63
2018-10-02T02:38:30.090Z,7.72
2018-10-02T02:39:05.531Z,7.58
2018-10-02T02:39:40.991Z,7.62
2018-10-02T02:40:16.179Z,7.60
2018-10-02T02:40:51.759Z,7.67
2018-10-02T02:41:26.985Z,7.60
2018-10-02T02:42:02.582Z,7.63
2018-10-02T02:42:37.890Z,7.59
2018-10-02T02:43:13.096Z,7.63
2018-10-02T02:43:48.366Z,7.63
2018-10-02T02:44:23.741Z,7.60
2018-10-02T02:44:58.987Z,7.71
2018-10-02T02:45:34.392Z,7.67
2018-10-02T02:46:09.770Z,7.66
2018-10-02T02:46:45.200Z,7.67
2018-10-02T02:47:20.432Z,7.71
2018-10-02T02:47:55.729Z,7.67
2018-10-02T02:48:31.476Z,7.66
2018-10-02T02:49:06.987Z,7.75
2018-10-02T02:49:45.507Z,7.74
2018-10-02T02:50:20.876Z,7.77
2018-10-02T02:50:56.165Z,7.69
2018-10-02T02:51:31.416Z,7.69
2018-10-02T02:52:06.717Z,7.67
2018-10-02T02:52:41.927Z,7.71
2018-10-02T02:53:17.268Z,7.74
2018-10-02T02:53:52.611Z,7.72
2018-10-02T02:54:27.999Z,7.78
2018-10-02T02:55:03.410Z,7.78
2018-10-02T02:55:39.035Z,7.71
2018-10-02T02:56:14.225Z,7.72
2018-10-02T02:56:49.975Z,7.72
2018-10-02T02:57:25.458Z,7.72
2018-10-02T02:58:00.771Z,7.71
2018-10-02T02:58:36.112Z,7.74
2018-10-02T02:59:11.416Z,7.75
2018-10-02T02:59:46.968Z,7.74
2018-10-02T03:00:22.278Z,7.77
2018-10-02T03:00:57.685Z,7.79
2018-10-02T03:01:32.829Z,7.82
2018-10-02T03:02:08.084Z,7.84
2018-10-02T03:02:43.625Z,7.82
2018-10-02T03:03:19.065Z,7.90
2018-10-02T03:03:54.677Z,7.90
2018-10-02T03:04:30.033Z,7.90
2018-10-02T03:05:05.804Z,7.85
2018-10-02T03:05:41.114Z,7.87
2018-10-02T03:06:16.797Z,7.82
2018-10-02T03:06:51.896Z,8.00
2018-10-02T03:07:27.231Z,7.87
2018-10-02T03:08:02.425Z,7.92
2018-10-02T03:08:37.859Z,7.93
2018-10-02T03:09:13.097Z,7.96
2018-10-02T03:09:48.426Z,7.96
2018-10-02T03:10:23.849Z,8.00
2018-10-02T03:10:59.548Z,7.97
2018-10-02T03:11:35.061Z,7.99
2018-10-02T03:12:10.482Z,8.00
2018-10-02T03:12:46.110Z,7.96
2018-10-02T03:13:21.826Z,7.87
2018-10-02T03:13:57.332Z,7.94
2018-10-02T03:14:32.957Z,7.93
2018-10-02T03:15:08.361Z,7.99
2018-10-02T03:15:44.005Z,7.97
2018-10-02T03:16:19.223Z,7.99
2018-10-02T03:16:54.555Z,8.02
2018-10-02T03:17:30.325Z,8.00
2018-10-02T03:18:05.784Z,7.99
2018-10-02T03:18:41.102Z,8.03
2018-10-02T03:19:16.728Z,8.02
2018-10-02T03:19:52.038Z,8.04
2018-10-02T03:20:27.173Z,8.00
2018-10-02T03:21:02.714Z,8.02
2018-10-02T03:21:38.495Z,8.10
2018-10-02T03:22:14.030Z,8.04
2018-10-02T03:22:49.407Z,8.08
2018-10-02T03:23:24.719Z,8.04
2018-10-02T03:24:00.256Z,8.02
2018-10-02T03:24:35.448Z,8.02
2018-10-02T03:25:10.803Z,8.17
2018-10-02T03:25:46.015Z,8.04
2018-10-02T03:26:21.844Z,7.97
2018-10-02T03:26:57.233Z,8.11
2018-10-02T03:27:32.645Z,8.11
2018-10-02T03:28:08.237Z,7.96
2018-10-02T03:28:43.720Z,8.11
2018-10-02T03:29:19.215Z,8.02
2018-10-02T03:29:54.594Z,7.99
2018-10-02T03:30:29.886Z,8.04
2018-10-02T03:31:05.069Z,8.08
2018-10-02T03:31:40.708Z,8.08
2018-10-02T03:32:16.010Z,8.11
2018-10-02T03:32:51.536Z,8.07
2018-10-02T03:33:26.891Z,8.17
2018-10-02T03:34:02.859Z,8.02
2018-10-02T03:34:38.291Z,8.20
2018-10-02T03:35:13.724Z,8.18
2018-10-02T03:35:49.012Z,8.04
2018-10-02T03:36:24.149Z,8.14
2018-10-02T03:36:59.538Z,8.12
2018-10-02T03:37:34.782Z,8.28
2018-10-02T03:38:10.306Z,8.18
2018-10-02T03:38:45.691Z,8.26
2018-10-02T03:39:21.045Z,8.14
2018-10-02T03:39:56.412Z,8.11
2018-10-02T03:40:31.769Z,8.14
2018-10-02T03:41:07.385Z,8.14
2018-10-02T03:41:42.756Z,8.18
2018-10-02T03:42:17.928Z,8.12
2018-10-02T03:42:53.210Z,8.11
2018-10-02T03:43:28.652Z,8.10
2018-10-02T03:44:04.198Z,8.15
2018-10-02T03:44:39.611Z,8.30
2018-10-02T03:45:14.977Z,8.18
2018-10-02T03:45:50.305Z,8.17
2018-10-02T03:46:25.730Z,8.30
2018-10-02T03:47:01.247Z,8.20
2018-10-02T03:47:36.691Z,8.20
2018-10-02T03:48:12.130Z,8.18
2018-10-02T03:48:47.425Z,8.14
2018-10-02T03:49:22.879Z,8.21
2018-10-02T03:49:58.112Z,8.21
2018-10-02T03:50:33.381Z,8.22
2018-10-02T03:51:08.983Z,8.28
2018-10-02T03:51:44.754Z,8.18
2018-10-02T03:52:20.290Z,8.21
2018-10-02T03:52:55.707Z,8.22
2018-10-02T03:53:31.099Z,8.28
2018-10-02T03:54:06.511Z,8.25
2018-10-02T03:54:41.716Z,8.28
2018-10-02T03:55:17.056Z,8.25
2018-10-02T03:55:52.386Z,8.28
2018-10-02T03:56:27.748Z,8.22
2018-10-02T03:57:03.085Z,8.21
2018-10-02T03:57:38.378Z,8.29
2018-10-02T03:58:13.994Z,8.25
2018-10-02T03:58:49.310Z,8.32
2018-10-02T03:59:24.566Z,8.33
2018-10-02T03:59:59.770Z,8.30
2018-10-02T04:00:35.093Z,8.30
2018-10-02T04:01:10.524Z,8.36
2018-10-02T04:01:46.253Z,8.33
2018-10-02T04:02:21.920Z,8.47
2018-10-02T04:02:57.427Z,8.37
2018-10-02T04:03:32.844Z,8.35
2018-10-02T04:04:07.953Z,8.30
2018-10-02T04:04:43.700Z,8.32
2018-10-02T04:05:19.057Z,8.30
2018-10-02T04:05:54.154Z,8.40
2018-10-02T04:06:29.561Z,8.28
2018-10-02T04:07:05.567Z,8.39
2018-10-02T04:07:41.396Z,8.42
2018-10-02T04:08:16.845Z,8.35
2018-10-02T04:08:52.269Z,8.32
2018-10-02T04:09:27.682Z,8.32
2018-10-02T04:10:02.913Z,8.33
2018-10-02T04:10:38.455Z,8.39
2018-10-02T04:11:13.879Z,8.32
2018-10-02T04:11:49.276Z,8.35
2018-10-02T04:12:24.608Z,8.33
2018-10-02T04:12:59.768Z,8.37
2018-10-02T04:13:35.135Z,8.36
2018-10-02T04:14:10.641Z,8.42
2018-10-02T04:14:45.941Z,8.37
2018-10-02T04:15:21.620Z,8.30
2018-10-02T04:15:56.959Z,8.42
2018-10-02T04:16:32.277Z,8.40
2018-10-02T04:17:07.577Z,8.39
2018-10-02T04:17:43.305Z,8.39
2018-10-02T04:18:18.804Z,8.36
2018-10-02T04:18:54.114Z,8.40
2018-10-02T04:19:29.544Z,8.50
2018-10-02T04:20:04.979Z,8.37
2018-10-02T04:20:40.365Z,8.47
2018-10-02T04:21:15.748Z,8.42
2018-10-02T04:21:51.051Z,8.47
2018-10-02T04:22:26.357Z,8.47
2018-10-02T04:23:01.679Z,8.45
2018-10-02T04:23:37.117Z,8.42
2018-10-02T04:24:12.666Z,8.44
2018-10-02T04:24:48.299Z,8.60
2018-10-02T04:25:23.391Z,8.55
2018-10-02T04:25:58.552Z,8.51
2018-10-02T04:26:33.672Z,8.47
2018-10-02T04:27:08.824Z,8.51
2018-10-02T04:27:44.196Z,8.57
2018-10-02T04:28:19.540Z,8.55
2018-10-02T04:28:54.901Z,8.58
2018-10-02T04:29:30.119Z,8.53
2018-10-02T04:30:05.469Z,8.48
2018-10-02T04:30:40.795Z,8.58
2018-10-02T04:31:16.173Z,8.58
2018-10-02T04:31:52.282Z,8.60
2018-10-02T04:32:27.652Z,8.55
2018-10-02T04:33:03.198Z,8.48
2018-10-02T04:33:38.499Z,8.60
2018-10-02T04:34:13.861Z,8.58
2018-10-02T04:34:49.945Z,8.51
2018-10-02T04:35:25.292Z,8.60
2018-10-02T04:36:00.388Z,8.55
2018-10-02T04:36:35.928Z,8.69
2018-10-02T04:37:11.360Z,8.62
2018-10-02T04:37:46.885Z,8.63
2018-10-02T04:38:22.506Z,8.66
2018-10-02T04:38:57.443Z,8.62
2018-10-02T04:39:32.799Z,8.54
2018-10-02T04:40:07.875Z,8.62
2018-10-02T04:40:44.920Z,8.58
2018-10-02T04:41:20.467Z,8.60
2018-10-02T04:41:56.089Z,8.66
2018-10-02T04:42:31.711Z,8.53
2018-10-02T04:43:07.226Z,8.65
2018-10-02T04:43:42.829Z,8.60
2018-10-02T04:44:18.104Z,8.63
2018-10-02T04:44:53.408Z,8.66
2018-10-02T04:45:28.685Z,8.63
2018-10-02T04:46:04.326Z,8.68
2018-10-02T04:46:39.666Z,8.57
2018-10-02T04:47:14.903Z,8.66
2018-10-02T04:47:50.322Z,8.51
2018-10-02T04:48:25.677Z,8.90
2018-10-02T04:49:01.039Z,8.91
2018-10-02T04:49:36.174Z,8.86
2018-10-02T04:50:11.693Z,8.94
2018-10-02T04:50:47.529Z,8.88
2018-10-02T04:51:23.139Z,9.02
2018-10-02T04:51:58.371Z,8.97
2018-10-02T04:52:33.903Z,8.99
2018-10-02T04:53:09.403Z,8.99
2018-10-02T04:53:45.211Z,8.93
2018-10-02T04:54:20.611Z,8.99
2018-10-02T04:54:56.460Z,9.02
2018-10-02T04:55:31.996Z,9.09
2018-10-02T04:56:07.318Z,9.06
2018-10-02T04:56:42.417Z,9.05
2018-10-02T04:57:17.771Z,9.06
2018-10-02T04:57:52.966Z,9.01
2018-10-02T04:58:28.493Z,8.99
2018-10-02T04:59:03.809Z,8.97
2018-10-02T04:59:39.736Z,9.05
2018-10-02T05:00:15.166Z,8.99
2018-10-02T05:00:50.511Z,9.05
2018-10-02T05:01:25.930Z,9.04
2018-10-02T05:02:01.230Z,8.97
2018-10-02T05:02:37.015Z,9.01
2018-10-02T05:03:12.699Z,9.06
2018-10-02T05:03:48.138Z,9.13
2018-10-02T05:04:23.593Z,9.04
2018-10-02T05:04:59.108Z,9.12
2018-10-02T05:05:34.680Z,9.09
2018-10-02T05:06:09.985Z,9.04
2018-10-02T05:06:45.516Z,9.06
2018-10-02T05:07:20.832Z,8.88
2018-10-02T05:07:55.997Z,8.96
2018-10-02T05:08:31.281Z,8.94
2018-10-02T05:09:06.408Z,9.01
2018-10-02T05:09:41.683Z,9.02
2018-10-02T05:10:16.885Z,8.91
2018-10-02T05:10:52.232Z,9.01
2018-10-02T05:11:27.558Z,8.90
2018-10-02T05:12:02.811Z,8.97
2018-10-02T05:12:38.521Z,9.01
2018-10-02T05:13:13.759Z,8.91
2018-10-02T05:13:48.749Z,8.88
2018-10-02T05:14:24.054Z,8.88
2018-10-02T05:14:59.453Z,8.91
2018-10-02T05:15:34.882Z,8.91
2018-10-02T05:16:10.836Z,8.87
2018-10-02T05:16:49.257Z,8.87
2018-10-02T05:17:25.605Z,8.83
2018-10-02T05:18:01.741Z,8.87
2018-10-02T05:18:37.266Z,8.78
2018-10-02T05:19:12.689Z,8.78
2018-10-02T05:19:48.347Z,8.86
2018-10-02T05:20:23.660Z,8.91
2018-10-02T05:20:58.830Z,8.79
2018-10-02T05:21:34.163Z,8.83
2018-10-02T05:22:09.691Z,8.83
2018-10-02T05:22:45.223Z,8.83
2018-10-02T05:23:20.567Z,8.88
2018-10-02T05:23:56.208Z,8.86
2018-10-02T05:24:31.607Z,8.87
2018-10-02T05:25:09.942Z,8.86
2018-10-02T05:25:45.202Z,8.88
2018-10-02T05:26:20.503Z,8.84
2018-10-02T05:26:55.869Z,8.87
2018-10-02T05:27:31.202Z,8.87
2018-10-02T05:28:06.966Z,8.76
2018-10-02T05:28:42.356Z,8.76
2018-10-02T05:29:17.621Z,8.73
2018-10-02T05:29:52.913Z,8.78
2018-10-02T05:30:28.390Z,8.69
2018-10-02T05:31:04.202Z,8.72
2018-10-02T05:31:39.535Z,8.79
2018-10-02T05:32:14.581Z,8.71
2018-10-02T05:32:49.908Z,8.62
2018-10-02T05:33:25.121Z,8.68
2018-10-02T05:34:00.933Z,8.72
2018-10-02T05:34:36.072Z,8.63
2018-10-02T05:35:11.454Z,8.58
2018-10-02T05:35:47.079Z,8.54
2018-10-02T05:36:22.495Z,8.66
2018-10-02T05:36:57.822Z,8.69
2018-10-02T05:37:33.155Z,8.53
2018-10-02T05:38:08.405Z,8.69
2018-10-02T05:38:43.647Z,8.71
2018-10-02T05:39:19.296Z,8.60
2018-10-02T05:39:54.928Z,8.58
2018-10-02T05:40:30.260Z,8.55
2018-10-02T05:41:06.091Z,8.57
2018-10-02T05:41:41.694Z,8.65
2018-10-02T05:42:18.715Z,8.54
2018-10-02T05:42:53.983Z,8.51
2018-10-02T05:43:29.303Z,8.60
2018-10-02T05:44:04.748Z,8.55
2018-10-02T05:44:40.051Z,8.51
2018-10-02T05:45:15.383Z,8.57
2018-10-02T05:45:50.957Z,8.55
2018-10-02T05:46:26.283Z,8.58
2018-10-02T05:47:01.515Z,8.47
2018-10-02T05:47:36.687Z,8.51
2018-10-02T05:48:11.897Z,8.54
2018-10-02T05:48:50.546Z,8.50
2018-10-02T05:52:25.368Z,8.57
2018-10-02T05:53:00.796Z,8.51
2018-10-02T05:54:14.027Z,8.50
2018-10-02T05:54:49.466Z,8.47
2018-10-02T05:55:24.700Z,8.47
2018-10-02T05:56:00.495Z,8.55
2018-10-02T05:56:36.205Z,8.54
2018-10-02T05:57:11.365Z,8.48
2018-10-02T05:57:47.046Z,8.54
2018-10-02T05:58:22.400Z,8.63
2018-10-02T05:58:57.708Z,8.54
2018-10-02T05:59:32.998Z,8.63
2018-10-02T06:00:08.435Z,8.65
2018-10-02T06:00:43.624Z,8.55
2018-10-02T06:01:18.766Z,8.60
2018-10-02T06:01:53.866Z,8.62
2018-10-02T06:02:29.307Z,8.54
2018-10-02T06:03:04.627Z,8.60
2018-10-02T06:03:39.996Z,8.69
2018-10-02T06:04:15.057Z,8.65
2018-10-02T06:04:50.397Z,8.53
2018-10-02T06:05:25.716Z,8.51
2018-10-02T06:06:00.934Z,8.60
2018-10-02T06:06:36.436Z,8.62
2018-10-02T06:07:12.055Z,8.65
2018-10-02T06:07:47.343Z,8.66
2018-10-02T06:08:22.650Z,8.50
2018-10-02T06:08:57.876Z,8.57
2018-10-02T06:09:33.146Z,8.62
2018-10-02T06:10:08.372Z,8.57
2018-10-02T06:10:43.481Z,8.60
2018-10-02T06:11:18.551Z,8.51
2018-10-02T06:11:54.140Z,8.45
2018-10-02T06:12:29.706Z,8.55
2018-10-02T06:13:08.150Z,8.66
2018-10-02T06:13:44.111Z,8.83
2018-10-02T06:14:19.651Z,9.13
2018-10-02T06:14:55.540Z,-40.00
2018-10-02T06:19:23.184Z,-40.00
